createdAt,value
2023-02-24T00:14:59.134Z,99341.59
2023-02-24T00:22:17.601Z,99321.91
2023-02-24T00:29:40.120Z,99328.16
2023-02-24T00:37:00.001Z,99315.84
2023-02-24T00:44:18.483Z,99311.91
2023-02-24T00:51:38.245Z,99293.88
2023-02-24T00:58:59.290Z,99284.22
2023-02-24T01:06:20.516Z,99269.78
2023-02-24T01:13:38.898Z,99270.44
2023-02-24T01:21:01.005Z,99264.72
2023-02-24T01:28:19.184Z,99254.41
2023-02-24T01:35:37.789Z,99247.03
2023-02-24T01:42:57.513Z,99244.25
2023-02-24T01:50:18.425Z,99243.13
2023-02-24T01:57:38.849Z,99221.84
2023-02-24T02:05:01.060Z,99214.59
2023-02-24T02:12:19.268Z,99215.44
2023-02-24T02:20:16.721Z,99209.53
2023-02-24T02:27:59.064Z,99196.44
2023-02-24T02:35:21.638Z,99196.09
2023-02-24T02:42:42.614Z,99187.59
2023-02-24T02:50:08.253Z,99177.44
2023-02-24T02:57:30.559Z,99180.06
2023-02-24T03:04:52.858Z,99164.03
2023-02-24T03:12:15.483Z,99161.09
2023-02-24T03:19:39.234Z,99162.38
2023-02-24T03:27:02.841Z,99156.81
2023-02-24T03:34:25.169Z,99147.47
2023-02-24T03:41:50.209Z,99140.63
2023-02-24T03:49:16.938Z,99142.88
2023-02-24T03:56:48.508Z,99130.16
2023-02-24T04:04:14.219Z,99129.78
2023-02-24T04:11:46.077Z,99114.09
2023-02-24T04:19:09.699Z,99106.25
2023-02-24T04:26:29.187Z,99111.34
2023-02-24T04:33:50.568Z,99105.47
2023-02-24T04:41:21.610Z,99091.09
2023-02-24T04:48:40.251Z,99084.22
2023-02-24T04:55:58.590Z,99078.84
2023-02-24T05:03:18.558Z,99080.09
2023-02-24T05:10:39.036Z,99067.72
2023-02-24T05:17:57.324Z,99069.69
2023-02-24T05:25:17.014Z,99063.78
2023-02-24T05:32:35.568Z,99058.06
2023-02-24T05:39:56.855Z,99061.34
2023-02-24T05:47:19.832Z,99057.91
2023-02-24T05:54:40.074Z,99064.78
2023-02-24T06:02:00.484Z,99065.25
2023-02-24T06:09:23.443Z,99067.06
2023-02-24T06:16:43.585Z,99070.81
2023-02-24T06:24:02.024Z,99075.66
2023-02-24T06:31:22.670Z,99065.03
2023-02-24T06:38:41.774Z,99060.41
2023-02-24T06:46:00.049Z,99064.88
2023-02-24T07:02:42.992Z,99066.47
2023-02-24T07:10:01.180Z,99067.75
2023-02-24T07:17:21.042Z,99065.63
2023-02-24T07:24:46.419Z,99068.75
2023-02-24T07:32:07.078Z,99058.78
2023-02-24T07:39:26.026Z,99050.88
2023-02-24T07:46:45.982Z,99034.97
2023-02-24T07:54:05.335Z,99039.84
2023-02-24T08:01:23.959Z,99035.25
2023-02-24T08:08:59.057Z,99038.97
2023-02-24T08:16:18.677Z,99024.13
2023-02-24T08:23:44.762Z,99013.00
2023-02-24T08:31:05.969Z,99008.16
2023-02-24T08:38:26.710Z,99007.16
2023-02-24T08:45:46.253Z,99004.88
2023-02-24T08:53:05.833Z,99011.41
2023-02-24T09:00:42.908Z,98997.38
2023-02-24T09:08:01.546Z,98982.34
2023-02-24T09:15:25.664Z,98976.16
2023-02-24T09:22:57.451Z,98969.13
2023-02-24T09:30:51.765Z,98957.72
2023-02-24T09:38:10.309Z,98939.22
2023-02-24T09:45:34.077Z,98946.59
2023-02-24T09:53:11.122Z,98937.25
2023-02-24T10:00:33.733Z,98930.38
2023-02-24T10:07:53.458Z,98905.72
2023-02-24T10:15:32.440Z,98917.00
2023-02-24T10:22:55.734Z,98920.19
2023-02-24T10:30:21.035Z,98900.75
2023-02-24T10:37:39.496Z,98882.47
2023-02-24T10:45:18.222Z,98866.38
2023-02-24T10:52:51.063Z,98853.59
2023-02-24T11:00:54.066Z,98838.69
2023-02-24T11:08:36.637Z,98826.44
2023-02-24T11:16:14.358Z,98820.41
2023-02-24T11:23:36.208Z,98800.31
2023-02-24T11:31:01.180Z,98776.63
2023-02-24T11:38:29.694Z,98767.97
2023-02-24T11:45:49.702Z,98754.09
2023-02-24T11:53:19.642Z,98750.53
2023-02-24T12:00:40.495Z,98751.38
2023-02-24T12:08:04.677Z,98729.28
2023-02-24T12:15:27.362Z,98715.16
2023-02-24T12:22:48.954Z,98715.56
2023-02-24T12:30:34.273Z,98702.28
2023-02-24T12:38:01.010Z,98696.50
2023-02-24T12:45:23.314Z,98678.66
2023-02-24T12:52:54.284Z,98660.06
2023-02-24T13:00:17.956Z,98644.28
2023-02-24T13:07:55.550Z,98629.63
2023-02-24T13:15:21.642Z,98636.63
2023-02-24T13:22:43.735Z,98601.66
2023-02-24T13:30:05.879Z,98589.66
2023-02-24T13:37:36.481Z,98576.00
2023-02-24T13:44:55.614Z,98581.00
2023-02-24T13:52:21.852Z,98571.66
2023-02-24T14:00:04.016Z,98544.38
2023-02-24T14:07:33.574Z,98542.75
2023-02-24T14:14:52.324Z,98534.19
2023-02-24T14:22:20.772Z,98539.16
2023-02-24T14:29:44.179Z,98524.53
2023-02-24T14:37:05.066Z,98534.63
2023-02-24T14:44:26.425Z,98519.50
2023-02-24T14:51:44.744Z,98516.19
2023-02-24T14:59:08.596Z,98501.16
2023-02-24T15:06:31.357Z,98482.28
2023-02-24T15:13:51.840Z,98475.31
2023-02-24T15:21:21.308Z,98466.91
2023-02-24T15:28:41.102Z,98454.06
2023-02-24T15:36:00.780Z,98458.59
2023-02-24T15:43:20.061Z,98439.13
2023-02-24T15:50:39.853Z,98443.84
2023-02-24T15:57:59.485Z,98439.00
2023-02-24T16:05:17.830Z,98422.09
2023-02-24T16:12:39.677Z,98405.53
2023-02-24T16:19:59.177Z,98399.44
2023-02-24T16:27:18.869Z,98393.25
2023-02-24T16:34:38.789Z,98402.75
2023-02-24T16:41:57.442Z,98386.47
2023-02-24T16:49:20.371Z,98376.94
2023-02-24T16:56:40.220Z,98385.41
2023-02-24T17:03:58.523Z,98379.88
2023-02-24T17:11:18.505Z,98385.94
2023-02-24T17:18:40.777Z,98385.72
2023-02-24T17:26:01.861Z,98372.28
2023-02-24T17:33:20.202Z,98351.56
2023-02-24T17:40:40.012Z,98344.06
2023-02-24T17:47:58.270Z,98327.44
2023-02-24T17:55:16.511Z,98321.00
2023-02-24T18:02:36.784Z,98316.91
2023-02-24T18:09:55.196Z,98311.38
2023-02-24T18:17:13.442Z,98292.34
2023-02-24T18:24:34.575Z,98291.81
2023-02-24T18:31:53.007Z,98271.56
2023-02-24T18:39:14.694Z,98264.94
2023-02-24T18:46:34.983Z,98256.94
2023-02-24T18:53:53.840Z,98254.38
2023-02-24T19:01:13.655Z,98250.63
2023-02-24T19:08:33.475Z,98248.81
2023-02-24T19:15:52.220Z,98244.88
2023-02-24T19:23:10.689Z,98235.84
2023-02-24T19:30:32.212Z,98208.97
2023-02-24T19:37:50.899Z,98201.03
2023-02-24T19:45:15.719Z,98189.09
2023-02-24T19:52:39.311Z,98185.53
2023-02-24T19:59:57.674Z,98180.03
2023-02-24T20:07:32.556Z,98175.00
2023-02-24T20:14:52.370Z,98167.47
2023-02-24T20:22:11.036Z,98153.50
2023-02-24T20:29:29.540Z,98147.97
2023-02-24T20:36:49.205Z,98135.59
2023-02-24T20:44:08.310Z,98131.53
2023-02-24T20:51:27.300Z,98124.75
2023-02-24T20:58:47.643Z,98126.84
2023-02-24T21:06:21.135Z,98114.06
2023-02-24T21:13:40.858Z,98110.28
2023-02-24T21:21:00.613Z,98097.28
2023-02-24T21:28:18.930Z,98083.75
2023-02-24T21:35:37.154Z,98064.06
2023-02-24T21:42:57.015Z,98050.25
2023-02-24T21:50:16.076Z,98046.28
2023-02-24T21:57:41.089Z,98056.06
2023-02-24T22:05:01.126Z,98048.84
2023-02-24T22:12:19.870Z,98054.72
2023-02-24T22:19:38.423Z,98045.59
2023-02-24T22:26:58.161Z,98038.44
2023-02-24T22:34:16.416Z,98042.34
2023-02-24T22:41:36.633Z,98026.72
2023-02-24T22:48:57.517Z,98031.13
2023-02-24T22:56:18.170Z,98024.50
2023-02-24T23:03:36.469Z,98032.25
2023-02-24T23:10:56.655Z,98020.06
2023-02-24T23:18:15.224Z,98023.00
2023-02-24T23:25:33.674Z,98025.78
2023-02-24T23:32:59.412Z,98015.72
2023-02-24T23:40:18.088Z,98008.00
2023-02-24T23:47:36.487Z,98010.78
2023-02-24T23:54:56.316Z,97992.44
